Time;durP1;ratioP1;P1;durP2;ratioP2;P2;SDS_P1;SDS_P2;PMS_P1;PMS_P2;Temp;Humidity;BMP_temperature;BMP_pressure;BME280_temperature;BME280_humidity;BME280_pressure;Samples;Min_cycle;Max_cycle;Signal;HPM_P1;HPM_P2
2023/01/27 00:00:24;;;;;;;25.80;10.27;;;;;;;0.83;100.00;100196.22;12200950;19;19999;-79
2023/01/27 00:04:25;;;;;;;21.67;9.13;;;;;;;0.87;100.00;100204.84;12183398;19;20066;-82
2023/01/27 00:08:28;;;;;;;27.38;10.55;;;;;;;0.89;100.00;100190.09;12199848;19;20077;-80
2023/01/27 00:16:51;;;;;;;30.30;9.75;;;;;;;0.86;100.00;100182.31;12176223;19;20039;-82
2023/01/27 00:25:13;;;;;;;31.48;10.00;;;;;;;0.91;100.00;100185.31;12191734;19;21465;-80
2023/01/27 00:29:15;;;;;;;27.42;10.25;;;;;;;0.95;100.00;100179.53;12184084;19;20007;-80
2023/01/27 00:33:28;;;;;;;32.38;11.35;;;;;;;0.98;100.00;100171.91;12206762;19;20014;-81
2023/01/27 00:37:30;;;;;;;29.08;11.43;;;;;;;0.95;100.00;100176.81;12186735;19;20007;-80
2023/01/27 00:41:32;;;;;;;30.08;10.48;;;;;;;0.91;100.00;100176.34;12204759;19;20011;-81
2023/01/27 00:45:50;;;;;;;31.92;12.10;;;;;;;0.93;100.00;100177.00;12206734;19;20038;-80
2023/01/27 00:49:51;;;;;;;23.20;9.02;;;;;;;0.99;100.00;100175.47;12182860;19;20011;-80
2023/01/27 00:53:53;;;;;;;25.38;9.40;;;;;;;1.00;100.00;100171.72;12203149;19;20030;-81
2023/01/27 00:57:55;;;;;;;21.13;8.55;;;;;;;1.01;100.00;100171.53;12204249;19;21306;-81
2023/01/27 01:01:56;;;;;;;26.90;8.50;;;;;;;1.01;100.00;100176.09;12181655;19;20067;-81
2023/01/27 01:05:59;;;;;;;27.38;10.10;;;;;;;1.01;100.00;100174.25;12203548;19;21747;-81
2023/01/27 01:10:02;;;;;;;26.52;10.52;;;;;;;0.98;100.00;100181.88;12208461;19;20114;-81
2023/01/27 01:14:04;;;;;;;24.02;8.73;;;;;;;0.99;100.00;100181.72;12182808;19;20705;-82
2023/01/27 01:18:08;;;;;;;21.48;9.13;;;;;;;1.06;100.00;100188.13;12207319;19;20038;-80
2023/01/27 01:22:09;;;;;;;23.55;8.93;;;;;;;1.08;100.00;100183.34;12205380;19;20002;-82
2023/01/27 01:26:12;;;;;;;25.17;9.20;;;;;;;1.09;100.00;100186.91;12183984;19;20046;-82
2023/01/27 01:30:14;;;;;;;26.27;9.60;;;;;;;1.12;100.00;100189.28;12205160;19;20050;-80
2023/01/27 01:34:16;;;;;;;15.57;7.03;;;;;;;1.10;100.00;100194.03;12217803;19;20010;-80
2023/01/27 01:38:18;;;;;;;28.85;9.52;;;;;;;1.14;100.00;100190.78;12187104;19;20393;-82
2023/01/27 01:42:19;;;;;;;29.20;11.50;;;;;;;1.14;100.00;100190.78;12206632;19;20520;-81
2023/01/27 01:46:21;;;;;;;28.80;10.68;;;;;;;1.17;100.00;100192.28;12209131;19;20002;-80
2023/01/27 01:50:23;;;;;;;29.38;10.65;;;;;;;1.20;100.00;100183.78;12183950;19;20010;-82
2023/01/27 01:54:28;;;;;;;31.67;12.57;;;;;;;1.20;100.00;100182.97;12206054;19;20010;-82
2023/01/27 01:58:32;;;;;;;29.25;11.13;;;;;;;1.16;100.00;100181.59;12188576;19;20046;-83
2023/01/27 02:02:35;;;;;;;28.17;10.68;;;;;;;1.11;100.00;100171.31;12202562;19;20010;-79
2023/01/27 02:06:44;;;;;;;27.13;10.65;;;;;;;1.12;100.00;100181.13;12222917;19;20026;-82
2023/01/27 02:10:46;;;;;;;27.92;11.18;;;;;;;1.14;100.00;100168.22;12177750;19;20006;-81
2023/01/27 02:14:49;;;;;;;26.60;10.77;;;;;;;1.09;100.00;100167.91;12199174;19;20007;-82
2023/01/27 02:18:51;;;;;;;29.58;11.52;;;;;;;1.05;100.00;100161.16;12198562;19;20100;-80
2023/01/27 02:23:06;;;;;;;31.67;10.27;;;;;;;1.07;100.00;100168.09;12176461;19;20095;-81
2023/01/27 02:27:13;;;;;;;30.25;11.93;;;;;;;1.12;100.00;100162.97;12198559;19;20433;-80
2023/01/27 02:31:14;;;;;;;28.30;10.32;;;;;;;1.16;100.00;100165.31;12203341;19;20003;-81
2023/01/27 02:35:24;;;;;;;26.63;11.60;;;;;;;1.21;100.00;100157.50;12170844;19;20002;-82
2023/01/27 02:39:38;;;;;;;26.40;11.00;;;;;;;1.24;100.00;100165.28;12197256;19;20012;-81
2023/01/27 02:43:40;;;;;;;32.78;11.63;;;;;;;1.26;100.00;100174.94;12174013;19;19999;-81
2023/01/27 02:47:42;;;;;;;30.90;10.77;;;;;;;1.30;100.00;100173.53;12195647;19;20027;-81
2023/01/27 02:51:44;;;;;;;35.97;11.65;;;;;;;1.32;100.00;100176.06;12194515;19;20007;-81
2023/01/27 02:55:45;;;;;;;32.33;11.48;;;;;;;1.27;100.00;100182.03;12174050;19;20023;-81
2023/01/27 02:59:47;;;;;;;29.27;11.27;;;;;;;1.29;100.00;100184.59;12195413;19;20014;-82
2023/01/27 03:03:50;;;;;;;37.80;11.10;;;;;;;1.22;100.00;100178.16;12197373;19;20022;-81
2023/01/27 03:07:52;;;;;;;38.10;11.45;;;;;;;1.21;100.00;100179.22;12176465;19;20074;-81
2023/01/27 03:20:50;;;;;;;28.83;10.02;;;;;;;1.32;100.00;100179.63;12170741;19;20074;-80
2023/01/27 03:24:51;;;;;;;33.90;11.40;;;;;;;1.34;100.00;100193.88;12193416;19;20031;-82
2023/01/27 03:33:16;;;;;;;;;;;;;;;1.31;100.00;100185.25;12196254;19;20030;-81
2023/01/27 03:46:18;;;;;;;25.63;9.48;;;;;;;1.30;100.00;100192.53;12190809;19;20007;-81
2023/01/27 03:50:36;;;;;;;32.25;10.98;;;;;;;1.29;100.00;100190.84;12167733;19;20015;-81
2023/01/27 03:54:38;;;;;;;26.98;9.60;;;;;;;1.35;100.00;100190.13;12191874;19;20011;-80
2023/01/27 03:58:40;;;;;;;28.95;9.38;;;;;;;1.43;100.00;100183.81;12169706;19;20010;-82
2023/01/27 04:07:02;;;;;;;28.42;9.55;;;;;;;1.46;100.00;100193.44;12203373;19;20011;-82
2023/01/27 04:15:24;;;;;;;24.85;9.25;;;;;;;1.46;100.00;100197.03;12204550;19;20067;-81
2023/01/27 04:19:26;;;;;;;28.05;10.10;;;;;;;1.44;100.00;100196.34;12210621;19;20006;-81
2023/01/27 04:23:28;;;;;;;22.77;9.50;;;;;;;1.47;100.00;100201.41;12222670;19;20006;-79
2023/01/27 04:27:29;;;;;;;27.17;9.95;;;;;;;1.48;100.00;100196.81;12263352;19;20002;-80
2023/01/27 04:31:31;;;;;;;24.83;9.45;;;;;;;1.50;100.00;100197.50;12213436;19;20027;-82
2023/01/27 04:35:33;;;;;;;23.63;10.00;;;;;;;1.50;100.00;100202.94;12184861;19;20120;-82
2023/01/27 04:39:40;;;;;;;22.63;8.73;;;;;;;1.49;100.00;100206.69;12208795;19;20026;-82
2023/01/27 04:43:42;;;;;;;;;;;;;;;1.51;100.00;100199.19;12184109;19;20464;-79
2023/01/27 04:47:43;;;;;;;24.13;7.95;;;;;;;1.49;100.00;100206.69;12200533;19;19939;-81
2023/01/27 04:51:45;;;;;;;17.52;7.30;;;;;;;1.53;100.00;100208.00;12205042;19;20002;-80
2023/01/27 04:55:49;;;;;;;21.38;7.60;;;;;;;1.51;100.00;100218.19;12181729;19;20006;-81
2023/01/27 04:59:50;;;;;;;21.60;8.38;;;;;;;1.49;100.00;100221.09;12203703;19;20027;-82
2023/01/27 05:03:52;;;;;;;22.75;8.02;;;;;;;1.46;100.00;100216.03;12203420;19;20018;-82
2023/01/27 05:07:54;;;;;;;12.60;5.33;;;;;;;1.48;100.00;100221.25;12182886;19;20003;-82
2023/01/27 05:11:55;;;;;;;16.45;7.32;;;;;;;1.54;100.00;100217.81;12207200;19;20464;-80
2023/01/27 05:16:12;;;;;;;19.23;7.60;;;;;;;1.51;100.00;100215.47;12235984;19;20035;-79
2023/01/27 05:20:14;;;;;;;17.85;6.93;;;;;;;1.50;100.00;100219.22;12244294;19;19999;-79
2023/01/27 05:24:16;;;;;;;14.03;5.90;;;;;;;1.55;100.00;100214.09;12229623;19;20021;-80
2023/01/27 05:28:17;;;;;;;20.02;7.93;;;;;;;1.58;100.00;100217.28;12206390;19;20018;-82
2023/01/27 05:32:19;;;;;;;14.95;6.40;;;;;;;1.57;100.00;100228.31;12183327;19;20069;-83
2023/01/27 05:36:22;;;;;;;19.27;7.45;;;;;;;1.61;100.00;100229.66;12202576;19;20006;-81
2023/01/27 05:40:24;;;;;;;19.00;7.85;;;;;;;1.62;100.00;100231.34;12202859;19;20003;-80
2023/01/27 05:44:25;;;;;;;20.00;7.60;;;;;;;1.60;100.00;100236.09;12177632;19;20035;-81
2023/01/27 05:48:27;;;;;;;18.83;7.30;;;;;;;1.57;100.00;100236.47;12198324;19;20011;-81
2023/01/27 05:52:29;;;;;;;18.95;7.57;;;;;;;1.57;100.00;100239.19;12201552;19;20556;-80
2023/01/27 05:56:31;;;;;;;18.33;7.57;;;;;;;1.53;100.00;100235.16;12176095;19;20492;-81
2023/01/27 06:00:33;;;;;;;18.05;7.45;;;;;;;1.56;100.00;100235.63;12198915;19;20076;-80
2023/01/27 06:04:35;;;;;;;20.77;7.95;;;;;;;1.50;100.00;100243.66;12200336;19;20073;-80
2023/01/27 06:08:37;;;;;;;20.20;7.35;;;;;;;1.48;100.00;100240.28;12178102;19;20007;-81
2023/01/27 06:12:38;;;;;;;16.63;6.80;;;;;;;1.50;100.00;100235.53;12200113;19;20006;-82
2023/01/27 06:16:42;;;;;;;12.80;6.35;;;;;;;1.46;100.00;100242.31;12177333;19;20008;-80
2023/01/27 06:20:44;;;;;;;15.43;6.07;;;;;;;1.44;100.00;100249.81;12197730;19;20682;-80
2023/01/27 06:24:46;;;;;;;19.45;7.53;;;;;;;1.47;100.00;100250.31;12208055;19;20053;-81
2023/01/27 06:28:48;;;;;;;14.75;5.93;;;;;;;1.53;100.00;100256.88;12177742;19;20003;-83
2023/01/27 06:32:49;;;;;;;11.80;5.45;;;;;;;1.49;100.00;100250.97;12202859;19;20550;-82
2023/01/27 06:36:54;;;;;;;16.90;6.30;;;;;;;1.50;100.00;100254.53;12206604;19;20007;-81
2023/01/27 06:40:55;;;;;;;18.05;6.45;;;;;;;1.50;100.00;100258.09;12181397;19;20492;-80
2023/01/27 06:44:57;;;;;;;11.45;5.55;;;;;;;1.48;100.00;100264.72;12200032;19;20007;-81
2023/01/27 06:48:59;;;;;;;14.93;5.93;;;;;;;1.50;100.00;100278.97;12195679;19;20011;-83
2023/01/27 06:53:03;;;;;;;12.45;5.78;;;;;;;1.51;100.00;100269.78;12180448;19;20338;-81
2023/01/27 06:57:04;;;;;;;14.50;5.18;;;;;;;1.47;100.00;100280.19;12202285;19;20081;-82
2023/01/27 07:01:06;;;;;;;16.02;5.80;;;;;;;1.51;100.00;100280.66;12203677;19;20575;-82
2023/01/27 07:05:10;;;;;;;14.27;6.07;;;;;;;1.52;100.00;100283.22;12178713;19;20018;-81
2023/01/27 07:09:11;;;;;;;15.23;6.72;;;;;;;1.54;100.00;100285.72;12175299;19;20484;-81
2023/01/27 07:13:13;;;;;;;18.25;7.18;;;;;;;1.48;100.00;100287.28;12198310;19;20011;-82
2023/01/27 07:17:15;;;;;;;16.83;5.97;;;;;;;1.48;100.00;100290.00;12180486;19;20361;-82
2023/01/27 07:21:17;;;;;;;14.07;6.50;;;;;;;1.54;100.00;100302.88;12201742;19;20014;-82
2023/01/27 07:25:18;;;;;;;12.25;6.20;;;;;;;1.51;100.00;100296.94;12203284;19;20038;-83
2023/01/27 07:29:20;;;;;;;18.38;7.57;;;;;;;1.49;100.00;100299.03;12176828;19;20031;-82
2023/01/27 07:33:21;;;;;;;19.23;8.27;;;;;;;1.54;100.00;100307.47;12201352;19;20043;-81
2023/01/27 07:37:23;;;;;;;21.17;9.15;;;;;;;1.66;100.00;100308.72;12213434;19;20367;-83
2023/01/27 07:41:25;;;;;;;18.27;7.25;;;;;;;1.78;100.00;100320.88;12195081;19;20653;-82
2023/01/27 07:45:27;;;;;;;15.50;6.20;;;;;;;1.88;100.00;100320.66;12211599;19;20010;-81
2023/01/27 07:49:29;;;;;;;13.27;6.25;;;;;;;1.91;100.00;100322.16;12212082;19;20658;-82
2023/01/27 07:53:31;;;;;;;11.60;5.60;;;;;;;1.99;100.00;100322.09;12190086;19;20022;-80
2023/01/27 07:57:33;;;;;;;12.32;5.28;;;;;;;2.01;100.00;100320.03;12208201;19;20011;-81
2023/01/27 08:01:35;;;;;;;17.38;7.13;;;;;;;2.14;100.00;100330.28;12210968;19;20011;-82
2023/01/27 08:05:37;;;;;;;16.33;6.38;;;;;;;2.23;100.00;100335.50;12192458;19;20112;-82
2023/01/27 08:09:38;;;;;;;12.90;5.90;;;;;;;2.30;100.00;100327.47;12214270;19;20480;-82
2023/01/27 08:13:41;;;;;;;11.18;4.85;;;;;;;2.39;100.00;100337.22;12193152;19;20030;-81
2023/01/27 08:17:43;;;;;;;;;;;;;;;2.41;100.00;100343.34;12215241;19;20007;-81
2023/01/27 08:21:44;;;;;;;14.50;4.85;;;;;;;2.47;100.00;100331.72;12209650;19;19979;-82
2023/01/27 08:25:54;;;;;;;13.27;5.45;;;;;;;2.58;100.00;100337.72;12188111;19;20007;-82
2023/01/27 08:29:57;;;;;;;13.82;6.20;;;;;;;2.64;100.00;100335.09;12212820;19;20009;-80
2023/01/27 08:33:59;;;;;;;11.98;5.53;;;;;;;2.73;100.00;100346.75;12213010;19;20544;-80
2023/01/27 08:38:00;;;;;;;12.30;5.50;;;;;;;2.82;100.00;100345.63;12190533;19;20009;-81
2023/01/27 08:42:02;;;;;;;68.97;26.52;;;;;;;2.88;100.00;100354.94;12207663;19;20018;-80
2023/01/27 08:46:07;;;;;;;72.10;24.80;;;;;;;2.87;100.00;100361.44;12202950;19;20512;-81
2023/01/27 08:50:10;;;;;;;88.85;30.25;;;;;;;2.85;100.00;100377.09;12184175;19;20002;-80
2023/01/27 08:54:12;;;;;;;48.53;18.45;;;;;;;2.81;100.00;100371.19;12206477;19;20010;-80
2023/01/27 08:58:16;;;;;;;36.38;14.50;;;;;;;2.76;100.00;100373.59;12240143;19;20013;-80
2023/01/27 09:02:19;;;;;;;20.20;9.27;;;;;;;2.69;100.00;100378.94;12213861;19;20026;-81
2023/01/27 09:06:21;;;;;;;14.85;6.80;;;;;;;2.69;100.00;100376.22;12214860;19;20024;-81
2023/01/27 09:10:22;;;;;;;11.70;6.07;;;;;;;2.77;100.00;100377.16;12220307;19;20003;-80
2023/01/27 09:14:24;;;;;;;8.48;4.93;;;;;;;2.89;100.00;100383.88;12214727;19;20038;-78
2023/01/27 09:18:26;;;;;;;10.80;5.50;;;;;;;2.95;100.00;100385.84;12258924;19;20011;-81
2023/01/27 09:22:28;;;;;;;11.10;5.30;;;;;;;3.13;100.00;100389.03;12225522;19;20006;-82
2023/01/27 09:26:29;;;;;;;16.05;6.68;;;;;;;3.24;100.00;100393.16;12184708;19;20002;-82
2023/01/27 09:30:31;;;;;;;14.80;6.50;;;;;;;3.25;100.00;100399.47;12208356;19;20034;-82
2023/01/27 09:34:33;;;;;;;11.32;5.90;;;;;;;3.25;100.00;100394.88;12209099;19;20010;-82
2023/01/27 09:38:44;;;;;;;10.02;5.35;;;;;;;3.30;100.00;100399.75;12188792;19;20010;-82
2023/01/27 09:43:13;;;;;;;11.77;5.68;;;;;;;3.37;100.00;100403.41;12206990;19;20019;-81
2023/01/27 09:47:33;;;;;;;14.73;6.03;;;;;;;3.30;100.00;100406.06;12186770;19;20026;-82
2023/01/27 09:52:00;;;;;;;13.23;6.95;;;;;;;3.32;100.00;100394.97;12206239;19;20073;-81
2023/01/27 09:56:18;;;;;;;12.90;6.75;;;;;;;3.28;100.00;100399.94;12186116;19;20069;-81
2023/01/27 10:00:26;;;;;;;12.63;5.93;;;;;;;3.35;100.00;100397.31;12204705;19;20027;-82
2023/01/27 10:05:06;;;;;;;13.85;5.78;;;;;;;3.44;100.00;100385.28;12208087;19;20014;-81
2023/01/27 10:09:37;;;;;;;16.83;7.88;;;;;;;3.60;100.00;100395.97;12102522;19;2005378;-82
2023/01/27 10:13:50;;;;;;;21.90;8.55;;;;;;;3.81;100.00;100383.44;12191005;19;20006;-81
2023/01/27 10:18:07;;;;;;;16.15;7.68;;;;;;;4.10;100.00;100394.25;12201151;19;20031;-81
2023/01/27 10:22:08;;;;;;;13.00;6.35;;;;;;;4.33;100.00;100394.06;12199405;19;20011;-81
2023/01/27 10:26:26;;;;;;;9.52;5.68;;;;;;;4.26;100.00;100389.59;12178182;19;20014;-81
2023/01/27 10:30:35;;;;;;;14.32;6.38;;;;;;;4.19;100.00;100391.38;12202523;19;20012;-80
2023/01/27 10:34:48;;;;;;;11.90;5.57;;;;;;;4.39;100.00;100391.59;12206993;19;20007;-80
2023/01/27 10:39:07;;;;;;;13.00;6.57;;;;;;;4.55;100.00;100383.13;12206361;19;20014;-81
2023/01/27 10:43:21;;;;;;;55.60;25.25;;;;;;;4.71;100.00;100365.63;12254999;19;19998;-81
2023/01/27 10:47:48;;;;;;;13.70;8.57;;;;;;;5.00;100.00;100370.91;12222710;19;20538;-81
2023/01/27 10:51:59;;;;;;;9.93;5.35;;;;;;;5.16;100.00;100377.91;12207115;19;20011;-81
2023/01/27 10:56:24;;;;;;;10.00;4.65;;;;;;;5.18;100.00;100375.84;12180991;19;20457;-81
2023/01/27 11:00:39;;;;;;;10.85;4.72;;;;;;;5.18;100.00;100367.66;12203174;19;20023;-81
2023/01/27 11:05:06;;;;;;;9.35;5.85;;;;;;;5.08;100.00;100358.09;12180553;19;20019;-81
2023/01/27 11:09:23;;;;;;;10.68;5.13;;;;;;;5.05;100.00;100358.50;12198008;19;19999;-81
2023/01/27 11:13:26;;;;;;;10.20;5.45;;;;;;;4.93;100.00;100360.94;12198646;19;20010;-80
2023/01/27 11:17:37;;;;;;;11.43;3.95;;;;;;;4.93;100.00;100367.25;12179354;19;20082;-81
2023/01/27 11:21:40;;;;;;;6.32;3.55;;;;;;;5.01;100.00;100364.38;12197582;19;20014;-80
2023/01/27 11:25:45;;;;;;;;;;;;;;;5.11;100.00;100363.16;12168734;19;21246;-81
2023/01/27 11:29:53;;;;;;;6.03;3.05;;;;;;;5.14;100.00;100357.31;12195688;19;19902;-81
2023/01/27 11:34:15;;;;;;;6.78;3.25;;;;;;;5.06;100.00;100357.47;12196334;19;20547;-81
2023/01/27 11:38:19;;;;;;;5.05;2.63;;;;;;;5.15;100.00;100353.56;12179542;19;20715;-80
2023/01/27 11:42:21;;;;;;;4.72;2.50;;;;;;;5.25;100.00;100359.47;12195337;19;20805;-81
2023/01/27 11:46:23;;;;;;;7.40;2.83;;;;;;;5.55;99.68;100356.47;12199787;19;20006;-81
2023/01/27 11:50:30;;;;;;;5.32;2.42;;;;;;;5.78;96.88;100348.78;12177828;19;20283;-80
2023/01/27 11:54:38;;;;;;;6.03;2.70;;;;;;;5.65;94.77;100354.19;12196385;19;20006;-80
2023/01/27 11:58:52;;;;;;;4.22;2.25;;;;;;;5.53;94.20;100344.88;12184068;19;20039;-81
2023/01/27 12:03:10;;;;;;;4.97;2.35;;;;;;;5.55;94.69;100346.38;12203201;19;20006;-81
2023/01/27 12:07:27;;;;;;;4.78;2.20;;;;;;;5.60;95.31;100352.09;12197547;19;20272;-81
2023/01/27 12:11:31;;;;;;;4.68;2.60;;;;;;;5.52;94.36;100346.78;12174502;19;20002;-81
2023/01/27 12:15:34;;;;;;;5.68;3.05;;;;;;;5.43;95.48;100348.00;12198135;19;20383;-80
2023/01/27 12:19:40;;;;;;;5.45;2.65;;;;;;;5.37;95.32;100340.63;12197460;19;20039;-80
2023/01/27 12:23:54;;;;;;;4.15;2.13;;;;;;;5.37;96.53;100338.72;12184855;19;20011;-80
2023/01/27 12:27:59;;;;;;;3.83;2.00;;;;;;;5.29;95.42;100343.50;12210506;19;20018;-81
2023/01/27 12:32:01;;;;;;;5.30;3.25;;;;;;;5.31;95.94;100339.53;12191439;19;20079;-81
2023/01/27 12:36:12;;;;;;;10.25;4.15;;;;;;;5.33;94.95;100333.88;12211173;19;20002;-81
2023/01/27 12:40:19;;;;;;;7.97;3.35;;;;;;;5.36;94.64;100328.00;12208806;19;20082;-80
2023/01/27 12:44:25;;;;;;;7.53;3.65;;;;;;;5.47;93.49;100327.41;12188190;19;20472;-80
2023/01/27 12:48:29;;;;;;;4.18;2.15;;;;;;;5.66;93.59;100329.38;12209008;19;20179;-81
2023/01/27 12:52:31;;;;;;;6.57;2.50;;;;;;;5.91;93.73;100331.56;12211514;19;20010;-81
2023/01/27 12:56:33;;;;;;;3.28;1.90;;;;;;;6.03;92.35;100327.19;12189261;19;20043;-81
2023/01/27 13:00:35;;;;;;;3.60;1.95;;;;;;;6.07;91.05;100322.19;12204752;19;20003;-80
2023/01/27 13:04:37;;;;;;;3.08;1.60;;;;;;;5.99;91.91;100319.63;12202466;19;20034;-81
2023/01/27 13:08:40;;;;;;;2.77;1.60;;;;;;;5.92;90.67;100323.16;12183396;19;20010;-81
2023/01/27 13:12:57;;;;;;;2.58;1.55;;;;;;;5.67;89.23;100322.03;12205550;19;20509;-80
2023/01/27 13:16:58;;;;;;;3.42;1.35;;;;;;;5.56;91.44;100317.13;12201949;19;20011;-81
2023/01/27 13:21:14;;;;;;;2.38;1.20;;;;;;;5.56;90.41;100314.41;12223497;19;20104;-81
2023/01/27 13:25:25;;;;;;;2.28;1.38;;;;;;;5.70;91.07;100321.63;12207362;19;19999;-81
2023/01/27 13:29:33;;;;;;;3.75;1.83;;;;;;;5.72;90.14;100325.84;12188914;19;20014;-81
2023/01/27 13:33:43;;;;;;;3.10;1.40;;;;;;;5.65;90.89;100329.56;12209324;19;20419;-82
2023/01/27 13:38:09;;;;;;;4.10;1.75;;;;;;;5.45;89.69;100332.25;12187947;19;20046;-81
2023/01/27 13:42:20;;;;;;;3.20;1.25;;;;;;;5.29;90.47;100330.69;12209150;19;20006;-81
2023/01/27 13:46:27;;;;;;;2.85;1.27;;;;;;;5.29;91.44;100332.59;12208732;19;20480;-81
2023/01/27 13:50:36;;;;;;;2.08;1.00;;;;;;;5.24;91.96;100335.94;12184741;19;20011;-82
2023/01/27 13:54:41;;;;;;;2.65;1.20;;;;;;;5.10;92.16;100328.72;12214788;19;20046;-82
2023/01/27 13:59:04;;;;;;;1.73;0.90;;;;;;;5.06;93.37;100338.34;12194844;19;20035;-82
2023/01/27 14:03:34;;;;;;;1.35;0.80;;;;;;;5.10;93.13;100334.19;12252542;19;20045;-82
2023/01/27 14:07:53;;;;;;;1.73;0.98;;;;;;;5.15;93.62;100348.09;12259539;19;20031;-83
2023/01/27 14:12:15;;;;;;;1.25;0.90;;;;;;;5.17;93.84;100344.06;12188283;19;20007;-82
2023/01/27 14:16:53;;;;;;;2.80;1.23;;;;;;;5.14;93.22;100343.66;12213709;19;20011;-83
2023/01/27 14:21:21;;;;;;;2.03;0.90;;;;;;;5.02;93.23;100349.66;12184700;19;20038;-81
2023/01/27 14:25:52;;;;;;;1.95;1.20;;;;;;;4.96;93.42;100344.16;12203856;19;20035;-81
2023/01/27 14:30:25;;;;;;;2.00;1.10;;;;;;;4.99;93.91;100349.22;12177126;19;20031;-81
2023/01/27 14:35:09;;;;;;;1.25;0.90;;;;;;;4.97;93.63;100356.81;12200155;19;20007;-82
2023/01/27 14:39:17;;;;;;;2.72;1.15;;;;;;;4.92;93.77;100354.66;12104357;19;2004603;-80
2023/01/27 14:43:35;;;;;;;3.08;1.38;;;;;;;4.96;94.19;100355.09;12205401;19;21492;-80
2023/01/27 14:47:37;;;;;;;1.83;1.23;;;;;;;4.85;92.86;100356.50;12182280;19;20014;-82
2023/01/27 14:51:46;;;;;;;4.05;2.00;;;;;;;4.92;93.61;100367.47;12201993;19;20027;-80
2023/01/27 14:55:56;;;;;;;7.63;3.63;;;;;;;4.92;93.17;100371.03;12182724;19;20019;-81
2023/01/27 15:00:29;;;;;;;6.78;2.40;;;;;;;4.89;93.27;100371.44;12199687;19;20093;-80
2023/01/27 15:04:54;;;;;;;2.75;1.52;;;;;;;4.93;92.96;100380.06;12205326;19;20460;-81
2023/01/27 15:09:28;;;;;;;2.38;1.25;;;;;;;4.91;93.31;100385.75;12182566;19;20065;-82
2023/01/27 15:13:44;;;;;;;3.65;1.45;;;;;;;4.92;93.46;100386.59;12203072;19;20007;-81
2023/01/27 15:18:15;;;;;;;2.42;1.50;;;;;;;5.00;93.56;100390.00;12183500;19;20071;-81
2023/01/27 15:22:46;;;;;;;2.92;1.38;;;;;;;5.01;93.28;100390.84;12184322;19;20042;-81
2023/01/27 15:26:48;;;;;;;1.80;0.93;;;;;;;4.90;93.04;100405.06;12182295;19;20007;-80
2023/01/27 15:31:14;;;;;;;1.10;0.70;;;;;;;4.78;92.78;100397.38;12199038;19;20014;-80
2023/01/27 15:35:28;;;;;;;1.13;0.80;;;;;;;4.74;93.28;100406.19;12199405;19;20010;-80
2023/01/27 15:39:30;;;;;;;1.75;0.82;;;;;;;4.77;94.04;100417.56;12176524;19;21069;-80
2023/01/27 15:44:14;;;;;;;1.73;0.87;;;;;;;4.73;93.77;100415.41;12195898;19;20014;-80
2023/01/27 15:48:21;;;;;;;3.08;1.15;;;;;;;4.66;94.14;100403.59;12176034;19;20014;-80
2023/01/27 15:52:30;;;;;;;1.98;1.00;;;;;;;4.60;94.05;100412.56;12203359;19;20007;-80
2023/01/27 15:56:49;;;;;;;2.45;0.95;;;;;;;4.64;94.54;100411.13;12203560;19;20006;-80
2023/01/27 16:00:54;;;;;;;2.83;1.55;;;;;;;4.53;94.46;100407.91;12221790;19;20050;-82
2023/01/27 16:05:19;;;;;;;2.58;1.60;;;;;;;4.44;94.47;100411.81;12261925;19;20010;-82
2023/01/27 16:09:41;;;;;;;1.80;1.10;;;;;;;4.50;94.55;100421.94;12196152;19;20003;-81
2023/01/27 16:13:44;;;;;;;1.65;0.80;;;;;;;4.48;94.88;100423.16;12217536;19;20006;-81
2023/01/27 16:18:05;;;;;;;2.70;1.20;;;;;;;4.42;94.92;100413.03;12208409;19;20019;-81
2023/01/27 16:22:18;;;;;;;2.35;1.10;;;;;;;4.38;95.14;100425.38;12193689;19;20010;-81
2023/01/27 16:26:40;;;;;;;;;;;;;;;4.34;95.72;100424.91;12214321;19;20007;-81
2023/01/27 16:31:14;;;;;;;1.88;1.00;;;;;;;4.29;95.37;100424.66;12184648;19;19926;-82
2023/01/27 16:35:20;;;;;;;2.35;1.10;;;;;;;4.23;95.44;100431.75;12246006;19;20074;-82
2023/01/27 16:39:33;;;;;;;2.42;1.60;;;;;;;4.22;95.92;100434.66;12186984;19;20014;-81
2023/01/27 16:43:48;;;;;;;3.10;1.50;;;;;;;4.23;95.89;100436.34;12205374;19;20002;-80
2023/01/27 16:48:00;;;;;;;2.35;1.52;;;;;;;4.24;96.13;100438.88;12205595;19;20017;-79
2023/01/27 16:52:04;;;;;;;2.95;1.90;;;;;;;4.22;96.20;100445.56;12190016;19;20014;-81
2023/01/27 16:56:18;;;;;;;5.20;2.88;;;;;;;4.25;96.57;100453.34;12212664;19;19999;-81
2023/01/27 17:00:24;;;;;;;4.82;2.78;;;;;;;4.25;96.29;100450.63;12184720;19;19999;-80
2023/01/27 17:04:32;;;;;;;5.72;3.38;;;;;;;4.25;96.81;100456.09;12209394;19;20049;-81
2023/01/27 17:08:43;;;;;;;6.03;3.33;;;;;;;4.23;96.72;100459.03;12207530;19;20468;-79
2023/01/27 17:12:49;;;;;;;7.10;3.42;;;;;;;4.24;96.55;100465.31;12184408;19;20011;-80
2023/01/27 17:16:51;;;;;;;6.43;2.78;;;;;;;4.25;96.92;100470.59;12213440;19;20702;-80
2023/01/27 17:20:54;;;;;;;5.65;2.10;;;;;;;4.25;96.97;100465.13;12192155;19;20003;-79
2023/01/27 17:25:02;;;;;;;4.40;1.92;;;;;;;4.28;97.22;100472.94;12207461;19;20003;-80
2023/01/27 17:29:03;;;;;;;10.32;4.05;;;;;;;4.20;97.43;100473.03;12207801;19;20738;-82
2023/01/27 17:33:12;;;;;;;8.10;3.90;;;;;;;4.24;97.54;100473.50;12182100;19;20003;-80
2023/01/27 17:37:20;;;;;;;5.63;2.83;;;;;;;4.23;97.64;100463.63;12206630;19;20047;-80
2023/01/27 17:41:36;;;;;;;3.65;1.92;;;;;;;4.26;97.96;100471.44;12213572;19;20011;-81
2023/01/27 17:45:38;;;;;;;4.68;2.15;;;;;;;4.30;98.35;100470.00;12189852;19;20526;-81
2023/01/27 17:49:40;;;;;;;5.30;2.47;;;;;;;4.33;98.28;100472.34;12207507;19;20026;-81
2023/01/27 17:53:42;;;;;;;4.47;2.38;;;;;;;4.31;98.46;100474.41;12212431;19;19999;-81
2023/01/27 17:57:46;;;;;;;4.68;2.20;;;;;;;4.34;98.61;100471.28;12188810;19;20010;-81
2023/01/27 18:01:50;;;;;;;4.10;2.35;;;;;;;4.27;98.43;100473.13;12211695;19;20014;-80
2023/01/27 18:05:53;;;;;;;4.07;2.20;;;;;;;4.28;98.62;100486.56;12206778;19;20037;-81
2023/01/27 18:09:55;;;;;;;3.33;2.00;;;;;;;4.24;98.26;100485.25;12213088;19;20003;-81
2023/01/27 18:14:13;;;;;;;4.57;2.72;;;;;;;4.27;98.53;100487.59;12229786;19;20011;-81
2023/01/27 18:18:17;;;;;;;4.28;2.38;;;;;;;4.30;98.92;100486.38;12204568;19;20019;-83
2023/01/27 18:22:19;;;;;;;12.02;6.10;;;;;;;4.32;98.60;100498.78;12233291;19;20053;-81
2023/01/27 18:26:32;;;;;;;6.03;3.03;;;;;;;4.34;98.94;100498.56;12227787;19;20006;-82
2023/01/27 18:30:33;;;;;;;5.85;2.75;;;;;;;4.34;98.93;100499.44;12195770;19;20002;-81
2023/01/27 18:34:46;;;;;;;5.25;2.38;;;;;;;4.37;99.71;100509.09;12220146;19;20017;-80
2023/01/27 18:38:49;;;;;;;5.57;3.17;;;;;;;4.39;99.73;100504.31;12225027;19;20010;-82
2023/01/27 18:42:52;;;;;;;10.32;4.35;;;;;;;4.37;99.86;100509.09;12242667;19;20011;-82
2023/01/27 18:46:58;;;;;;;23.60;9.38;;;;;;;4.33;100.00;100513.25;12247856;19;20044;-81
2023/01/27 18:50:59;;;;;;;33.47;9.35;;;;;;;4.29;100.00;100512.81;12202313;19;20064;-82
2023/01/27 18:55:21;;;;;;;60.90;18.08;;;;;;;4.33;100.00;100516.84;12215813;19;20645;-83
2023/01/27 18:59:22;;;;;;;14.93;6.60;;;;;;;4.34;100.00;100510.34;12217788;19;20006;-82
2023/01/27 19:03:26;;;;;;;6.90;3.85;;;;;;;4.33;100.00;100522.28;12196837;19;20006;-82
2023/01/27 19:07:27;;;;;;;5.45;2.47;;;;;;;4.35;100.00;100513.94;12215840;19;20034;-81
2023/01/27 19:11:29;;;;;;;5.28;3.20;;;;;;;4.33;100.00;100516.00;12216060;19;20031;-82
2023/01/27 19:15:37;;;;;;;10.57;4.72;;;;;;;4.30;100.00;100513.66;12194401;19;20011;-82
2023/01/27 19:19:39;;;;;;;12.45;5.55;;;;;;;4.31;100.00;100521.66;12212992;19;20019;-82
2023/01/27 19:23:43;;;;;;;13.95;6.05;;;;;;;4.32;100.00;100527.97;12211683;19;20030;-80
2023/01/27 19:27:47;;;;;;;16.25;6.50;;;;;;;4.34;100.00;100525.88;12190657;19;20002;-81
2023/01/27 19:31:49;;;;;;;11.90;4.80;;;;;;;4.39;100.00;100528.03;12209763;19;20030;-82